sensor_id;sensor_type;location;lat;lon;timestamp;temperature;humidity
35043;DHT22;21230;51.170;17.024;2023-06-04T00:00:36;9.90;93.60
35043;DHT22;21230;51.170;17.024;2023-06-04T00:03:02;9.90;94.00
35043;DHT22;21230;51.170;17.024;2023-06-04T00:05:27;9.90;94.30
35043;DHT22;21230;51.170;17.024;2023-06-04T00:07:53;9.80;95.30
35043;DHT22;21230;51.170;17.024;2023-06-04T00:10:18;9.70;97.10
35043;DHT22;21230;51.170;17.024;2023-06-04T00:12:44;9.70;98.30
35043;DHT22;21230;51.170;17.024;2023-06-04T00:15:10;9.60;97.80
35043;DHT22;21230;51.170;17.024;2023-06-04T00:17:35;9.60;98.20
35043;DHT22;21230;51.170;17.024;2023-06-04T00:20:01;9.60;98.40
35043;DHT22;21230;51.170;17.024;2023-06-04T00:22:27;9.60;99.10
35043;DHT22;21230;51.170;17.024;2023-06-04T00:24:53;9.70;99.70
35043;DHT22;21230;51.170;17.024;2023-06-04T00:27:18;9.60;99.90
35043;DHT22;21230;51.170;17.024;2023-06-04T00:29:44;9.60;99.90
35043;DHT22;21230;51.170;17.024;2023-06-04T00:32:09;9.60;99.90
35043;DHT22;21230;51.170;17.024;2023-06-04T00:34:35;9.60;99.90
35043;DHT22;21230;51.170;17.024;2023-06-04T00:37:01;9.60;99.90
35043;DHT22;21230;51.170;17.024;2023-06-04T00:39:27;9.60;99.90
35043;DHT22;21230;51.170;17.024;2023-06-04T00:41:52;9.50;99.90
35043;DHT22;21230;51.170;17.024;2023-06-04T00:44:18;9.40;99.90
35043;DHT22;21230;51.170;17.024;2023-06-04T00:46:44;9.30;99.90
35043;DHT22;21230;51.170;17.024;2023-06-04T00:49:10;9.20;99.90
35043;DHT22;21230;51.170;17.024;2023-06-04T00:51:37;9.30;99.90
35043;DHT22;21230;51.170;17.024;2023-06-04T00:54:03;9.30;99.90
35043;DHT22;21230;51.170;17.024;2023-06-04T00:56:34;9.30;99.90
35043;DHT22;21230;51.170;17.024;2023-06-04T00:59:00;9.20;99.90
35043;DHT22;21230;51.170;17.024;2023-06-04T01:03:51;9.30;99.90
35043;DHT22;21230;51.170;17.024;2023-06-04T01:06:39;9.30;99.90
35043;DHT22;21230;51.170;17.024;2023-06-04T01:09:05;9.30;99.90
35043;DHT22;21230;51.170;17.024;2023-06-04T01:11:34;9.20;99.90
35043;DHT22;21230;51.170;17.024;2023-06-04T01:14:01;9.10;99.90
35043;DHT22;21230;51.170;17.024;2023-06-04T01:16:29;9.00;99.90
35043;DHT22;21230;51.170;17.024;2023-06-04T01:18:58;8.90;99.90
35043;DHT22;21230;51.170;17.024;2023-06-04T01:21:29;8.90;99.90
35043;DHT22;21230;51.170;17.024;2023-06-04T01:23:55;8.90;99.90
35043;DHT22;21230;51.170;17.024;2023-06-04T01:26:30;8.80;99.90
35043;DHT22;21230;51.170;17.024;2023-06-04T01:28:57;8.80;99.90
35043;DHT22;21230;51.170;17.024;2023-06-04T01:31:23;8.80;99.90
35043;DHT22;21230;51.170;17.024;2023-06-04T01:33:53;8.80;99.90
35043;DHT22;21230;51.170;17.024;2023-06-04T01:36:19;8.70;99.90
35043;DHT22;21230;51.170;17.024;2023-06-04T01:38:45;8.70;99.90
35043;DHT22;21230;51.170;17.024;2023-06-04T01:41:10;8.50;99.90
35043;DHT22;21230;51.170;17.024;2023-06-04T01:43:36;8.50;99.90
35043;DHT22;21230;51.170;17.024;2023-06-04T01:46:02;8.40;99.90
35043;DHT22;21230;51.170;17.024;2023-06-04T01:48:28;8.40;99.90
35043;DHT22;21230;51.170;17.024;2023-06-04T01:50:54;8.40;99.90
35043;DHT22;21230;51.170;17.024;2023-06-04T01:53:20;8.40;99.90
35043;DHT22;21230;51.170;17.024;2023-06-04T01:55:46;8.40;99.90
35043;DHT22;21230;51.170;17.024;2023-06-04T01:58:15;8.40;99.90
35043;DHT22;21230;51.170;17.024;2023-06-04T02:00:43;8.40;99.90
35043;DHT22;21230;51.170;17.024;2023-06-04T02:03:09;8.40;99.90
35043;DHT22;21230;51.170;17.024;2023-06-04T02:05:35;8.40;99.90
35043;DHT22;21230;51.170;17.024;2023-06-04T02:08:02;8.50;99.90
35043;DHT22;21230;51.170;17.024;2023-06-04T02:10:30;8.60;99.90
35043;DHT22;21230;51.170;17.024;2023-06-04T02:13:02;8.60;99.90
35043;DHT22;21230;51.170;17.024;2023-06-04T02:15:29;8.60;99.90
35043;DHT22;21230;51.170;17.024;2023-06-04T02:17:59;8.60;99.90
35043;DHT22;21230;51.170;17.024;2023-06-04T02:20:26;8.60;99.90
35043;DHT22;21230;51.170;17.024;2023-06-04T02:22:53;8.60;99.90
35043;DHT22;21230;51.170;17.024;2023-06-04T02:25:19;8.70;99.90
35043;DHT22;21230;51.170;17.024;2023-06-04T02:27:44;8.70;99.90
35043;DHT22;21230;51.170;17.024;2023-06-04T02:30:10;8.70;99.90
35043;DHT22;21230;51.170;17.024;2023-06-04T02:32:35;8.70;99.90
35043;DHT22;21230;51.170;17.024;2023-06-04T02:35:02;8.60;99.90
35043;DHT22;21230;51.170;17.024;2023-06-04T02:37:28;8.60;99.90
35043;DHT22;21230;51.170;17.024;2023-06-04T02:39:53;8.50;99.90
35043;DHT22;21230;51.170;17.024;2023-06-04T02:42:19;8.50;99.90
35043;DHT22;21230;51.170;17.024;2023-06-04T02:44:45;8.50;99.90
35043;DHT22;21230;51.170;17.024;2023-06-04T02:47:10;8.40;99.90
35043;DHT22;21230;51.170;17.024;2023-06-04T02:49:36;8.30;99.90
35043;DHT22;21230;51.170;17.024;2023-06-04T02:52:01;8.20;99.90
35043;DHT22;21230;51.170;17.024;2023-06-04T02:54:27;8.20;99.90
35043;DHT22;21230;51.170;17.024;2023-06-04T02:56:53;8.20;99.90
35043;DHT22;21230;51.170;17.024;2023-06-04T02:59:18;8.10;99.90
35043;DHT22;21230;51.170;17.024;2023-06-04T03:01:44;8.10;99.90
35043;DHT22;21230;51.170;17.024;2023-06-04T03:04:10;8.00;99.90
35043;DHT22;21230;51.170;17.024;2023-06-04T03:06:40;8.00;99.90
35043;DHT22;21230;51.170;17.024;2023-06-04T03:09:10;7.80;99.90
35043;DHT22;21230;51.170;17.024;2023-06-04T03:11:36;7.80;99.90
35043;DHT22;21230;51.170;17.024;2023-06-04T03:14:01;7.70;99.90
35043;DHT22;21230;51.170;17.024;2023-06-04T03:16:27;7.80;99.90
35043;DHT22;21230;51.170;17.024;2023-06-04T03:18:53;7.80;99.90
35043;DHT22;21230;51.170;17.024;2023-06-04T03:21:18;7.90;99.90
35043;DHT22;21230;51.170;17.024;2023-06-04T03:23:44;7.90;99.90
35043;DHT22;21230;51.170;17.024;2023-06-04T03:26:10;8.00;99.90
35043;DHT22;21230;51.170;17.024;2023-06-04T03:28:38;8.00;99.90
35043;DHT22;21230;51.170;17.024;2023-06-04T03:31:03;8.20;99.90
35043;DHT22;21230;51.170;17.024;2023-06-04T03:33:29;8.20;99.90
35043;DHT22;21230;51.170;17.024;2023-06-04T03:35:55;8.40;99.90
35043;DHT22;21230;51.170;17.024;2023-06-04T03:38:27;8.50;99.90
35043;DHT22;21230;51.170;17.024;2023-06-04T03:40:52;8.60;99.90
35043;DHT22;21230;51.170;17.024;2023-06-04T03:43:18;8.80;99.90
35043;DHT22;21230;51.170;17.024;2023-06-04T03:45:44;8.80;99.90
35043;DHT22;21230;51.170;17.024;2023-06-04T03:48:10;8.90;99.90
35043;DHT22;21230;51.170;17.024;2023-06-04T03:50:36;9.00;99.90
35043;DHT22;21230;51.170;17.024;2023-06-04T03:53:02;9.10;99.90
35043;DHT22;21230;51.170;17.024;2023-06-04T03:55:30;9.30;99.90
35043;DHT22;21230;51.170;17.024;2023-06-04T03:57:57;9.40;99.90
35043;DHT22;21230;51.170;17.024;2023-06-04T04:00:23;9.50;99.90
35043;DHT22;21230;51.170;17.024;2023-06-04T04:02:49;9.60;99.90
35043;DHT22;21230;51.170;17.024;2023-06-04T04:05:15;9.60;99.90
35043;DHT22;21230;51.170;17.024;2023-06-04T04:07:41;9.80;99.90
35043;DHT22;21230;51.170;17.024;2023-06-04T04:10:07;9.90;99.90
35043;DHT22;21230;51.170;17.024;2023-06-04T04:12:32;10.00;99.90
35043;DHT22;21230;51.170;17.024;2023-06-04T04:14:58;10.10;99.90
35043;DHT22;21230;51.170;17.024;2023-06-04T04:17:24;10.20;99.90
35043;DHT22;21230;51.170;17.024;2023-06-04T04:19:49;10.30;99.90
35043;DHT22;21230;51.170;17.024;2023-06-04T04:22:15;10.40;99.90
35043;DHT22;21230;51.170;17.024;2023-06-04T04:24:43;10.50;99.90
35043;DHT22;21230;51.170;17.024;2023-06-04T04:27:09;10.60;99.90
35043;DHT22;21230;51.170;17.024;2023-06-04T04:29:38;10.70;99.90
35043;DHT22;21230;51.170;17.024;2023-06-04T04:32:04;10.90;99.90
35043;DHT22;21230;51.170;17.024;2023-06-04T04:34:36;11.00;99.90
35043;DHT22;21230;51.170;17.024;2023-06-04T04:37:05;11.10;99.90
35043;DHT22;21230;51.170;17.024;2023-06-04T04:39:34;11.30;99.90
35043;DHT22;21230;51.170;17.024;2023-06-04T04:42:00;11.40;99.90
35043;DHT22;21230;51.170;17.024;2023-06-04T04:44:26;11.40;99.90
35043;DHT22;21230;51.170;17.024;2023-06-04T04:46:52;11.50;99.90
35043;DHT22;21230;51.170;17.024;2023-06-04T04:49:17;11.60;99.90
35043;DHT22;21230;51.170;17.024;2023-06-04T04:51:43;11.70;99.90
35043;DHT22;21230;51.170;17.024;2023-06-04T04:54:08;11.70;99.90
35043;DHT22;21230;51.170;17.024;2023-06-04T04:56:34;11.90;99.90
35043;DHT22;21230;51.170;17.024;2023-06-04T04:59:00;11.90;99.90
35043;DHT22;21230;51.170;17.024;2023-06-04T05:01:26;12.00;99.90
35043;DHT22;21230;51.170;17.024;2023-06-04T05:03:52;12.10;99.90
35043;DHT22;21230;51.170;17.024;2023-06-04T05:06:17;12.10;99.90
35043;DHT22;21230;51.170;17.024;2023-06-04T05:08:43;12.20;99.90
35043;DHT22;21230;51.170;17.024;2023-06-04T05:11:08;12.30;99.90
35043;DHT22;21230;51.170;17.024;2023-06-04T05:13:34;12.40;99.90
35043;DHT22;21230;51.170;17.024;2023-06-04T05:16:00;12.50;99.90
35043;DHT22;21230;51.170;17.024;2023-06-04T05:18:36;12.60;99.90
35043;DHT22;21230;51.170;17.024;2023-06-04T05:21:06;12.70;99.30
35043;DHT22;21230;51.170;17.024;2023-06-04T05:23:32;12.80;98.80
35043;DHT22;21230;51.170;17.024;2023-06-04T05:26:02;12.90;98.10
35043;DHT22;21230;51.170;17.024;2023-06-04T05:28:28;13.00;98.90
35043;DHT22;21230;51.170;17.024;2023-06-04T05:30:54;13.00;94.70
35043;DHT22;21230;51.170;17.024;2023-06-04T05:33:25;13.00;95.20
35043;DHT22;21230;51.170;17.024;2023-06-04T05:35:51;13.10;94.70
35043;DHT22;21230;51.170;17.024;2023-06-04T05:38:20;13.20;92.90
35043;DHT22;21230;51.170;17.024;2023-06-04T05:40:46;13.30;92.30
35043;DHT22;21230;51.170;17.024;2023-06-04T05:43:11;13.40;90.00
35043;DHT22;21230;51.170;17.024;2023-06-04T05:45:37;13.40;90.80
35043;DHT22;21230;51.170;17.024;2023-06-04T05:48:03;13.50;91.10
35043;DHT22;21230;51.170;17.024;2023-06-04T05:50:29;13.70;90.50
35043;DHT22;21230;51.170;17.024;2023-06-04T05:52:55;13.70;89.90
35043;DHT22;21230;51.170;17.024;2023-06-04T05:55:21;13.90;85.50
35043;DHT22;21230;51.170;17.024;2023-06-04T05:57:48;14.00;80.70
35043;DHT22;21230;51.170;17.024;2023-06-04T06:00:13;14.10;82.80
35043;DHT22;21230;51.170;17.024;2023-06-04T06:02:39;14.20;81.50
35043;DHT22;21230;51.170;17.024;2023-06-04T06:05:05;14.40;78.90
35043;DHT22;21230;51.170;17.024;2023-06-04T06:07:33;14.50;78.20
35043;DHT22;21230;51.170;17.024;2023-06-04T06:09:59;14.60;73.20
35043;DHT22;21230;51.170;17.024;2023-06-04T06:12:25;14.70;74.20
35043;DHT22;21230;51.170;17.024;2023-06-04T06:14:50;14.70;70.50
35043;DHT22;21230;51.170;17.024;2023-06-04T06:17:16;14.80;72.10
35043;DHT22;21230;51.170;17.024;2023-06-04T06:19:42;14.90;67.80
35043;DHT22;21230;51.170;17.024;2023-06-04T06:22:07;14.90;65.60
35043;DHT22;21230;51.170;17.024;2023-06-04T06:24:33;14.90;65.30
35043;DHT22;21230;51.170;17.024;2023-06-04T06:26:59;15.00;66.50
35043;DHT22;21230;51.170;17.024;2023-06-04T06:29:25;15.10;64.40
35043;DHT22;21230;51.170;17.024;2023-06-04T06:31:51;15.20;63.00
35043;DHT22;21230;51.170;17.024;2023-06-04T06:34:16;15.30;62.80
35043;DHT22;21230;51.170;17.024;2023-06-04T06:36:42;15.40;61.10
35043;DHT22;21230;51.170;17.024;2023-06-04T06:39:08;15.50;60.60
35043;DHT22;21230;51.170;17.024;2023-06-04T06:41:34;15.50;58.80
35043;DHT22;21230;51.170;17.024;2023-06-04T06:44:00;15.60;63.20
35043;DHT22;21230;51.170;17.024;2023-06-04T06:46:26;15.70;59.80
35043;DHT22;21230;51.170;17.024;2023-06-04T06:48:51;15.70;58.10
35043;DHT22;21230;51.170;17.024;2023-06-04T06:51:17;15.70;57.60
35043;DHT22;21230;51.170;17.024;2023-06-04T06:53:43;15.90;60.10
35043;DHT22;21230;51.170;17.024;2023-06-04T06:56:08;16.00;59.40
35043;DHT22;21230;51.170;17.024;2023-06-04T06:58:34;16.10;58.10
35043;DHT22;21230;51.170;17.024;2023-06-04T07:01:00;16.10;56.00
35043;DHT22;21230;51.170;17.024;2023-06-04T07:03:25;16.20;56.20
35043;DHT22;21230;51.170;17.024;2023-06-04T07:05:51;16.30;56.30
35043;DHT22;21230;51.170;17.024;2023-06-04T07:08:20;16.40;55.80
35043;DHT22;21230;51.170;17.024;2023-06-04T07:10:46;16.50;55.00
35043;DHT22;21230;51.170;17.024;2023-06-04T07:13:12;16.50;54.20
35043;DHT22;21230;51.170;17.024;2023-06-04T07:15:37;16.60;52.80
35043;DHT22;21230;51.170;17.024;2023-06-04T07:18:03;16.80;51.50
35043;DHT22;21230;51.170;17.024;2023-06-04T07:20:29;16.90;52.20
35043;DHT22;21230;51.170;17.024;2023-06-04T07:22:56;16.90;51.20
35043;DHT22;21230;51.170;17.024;2023-06-04T07:25:22;16.90;51.10
35043;DHT22;21230;51.170;17.024;2023-06-04T07:27:49;16.90;49.70
35043;DHT22;21230;51.170;17.024;2023-06-04T07:30:16;16.90;51.50
35043;DHT22;21230;51.170;17.024;2023-06-04T07:32:45;17.00;53.20
35043;DHT22;21230;51.170;17.024;2023-06-04T07:35:11;17.10;51.40
35043;DHT22;21230;51.170;17.024;2023-06-04T07:37:37;17.30;48.40
35043;DHT22;21230;51.170;17.024;2023-06-04T07:40:02;17.30;47.60
35043;DHT22;21230;51.170;17.024;2023-06-04T07:42:29;17.50;48.50
35043;DHT22;21230;51.170;17.024;2023-06-04T07:44:54;17.50;43.80
35043;DHT22;21230;51.170;17.024;2023-06-04T07:47:20;17.40;43.50
35043;DHT22;21230;51.170;17.024;2023-06-04T07:49:46;17.30;44.20
35043;DHT22;21230;51.170;17.024;2023-06-04T07:52:11;17.50;44.00
35043;DHT22;21230;51.170;17.024;2023-06-04T07:54:37;17.60;45.00
35043;DHT22;21230;51.170;17.024;2023-06-04T07:57:03;17.80;43.20
35043;DHT22;21230;51.170;17.024;2023-06-04T07:59:28;18.00;45.00
35043;DHT22;21230;51.170;17.024;2023-06-04T08:01:55;18.10;43.50
35043;DHT22;21230;51.170;17.024;2023-06-04T08:04:22;18.20;43.00
35043;DHT22;21230;51.170;17.024;2023-06-04T08:06:48;18.30;43.40
35043;DHT22;21230;51.170;17.024;2023-06-04T08:09:15;18.50;40.80
35043;DHT22;21230;51.170;17.024;2023-06-04T08:11:41;18.60;39.30
35043;DHT22;21230;51.170;17.024;2023-06-04T08:14:09;18.60;35.70
35043;DHT22;21230;51.170;17.024;2023-06-04T08:16:35;18.60;36.50
35043;DHT22;21230;51.170;17.024;2023-06-04T08:19:01;18.50;33.80
35043;DHT22;21230;51.170;17.024;2023-06-04T08:21:27;18.50;32.30
35043;DHT22;21230;51.170;17.024;2023-06-04T08:23:54;18.50;32.60
35043;DHT22;21230;51.170;17.024;2023-06-04T08:26:20;18.50;32.40
35043;DHT22;21230;51.170;17.024;2023-06-04T08:28:50;18.50;29.10
35043;DHT22;21230;51.170;17.024;2023-06-04T08:31:16;18.70;29.40
35043;DHT22;21230;51.170;17.024;2023-06-04T08:33:45;18.70;29.70
35043;DHT22;21230;51.170;17.024;2023-06-04T08:36:11;18.80;29.60
35043;DHT22;21230;51.170;17.024;2023-06-04T08:38:36;18.70;24.90
35043;DHT22;21230;51.170;17.024;2023-06-04T08:41:05;18.60;22.90
35043;DHT22;21230;51.170;17.024;2023-06-04T08:43:33;18.50;22.60
35043;DHT22;21230;51.170;17.024;2023-06-04T08:46:00;18.60;26.00
35043;DHT22;21230;51.170;17.024;2023-06-04T08:48:32;18.80;26.30
35043;DHT22;21230;51.170;17.024;2023-06-04T08:51:04;18.90;26.30
35043;DHT22;21230;51.170;17.024;2023-06-04T08:53:48;19.10;27.80
35043;DHT22;21230;51.170;17.024;2023-06-04T08:56:19;19.20;29.70
35043;DHT22;21230;51.170;17.024;2023-06-04T08:58:45;19.20;27.70
35043;DHT22;21230;51.170;17.024;2023-06-04T09:01:12;19.30;26.90
35043;DHT22;21230;51.170;17.024;2023-06-04T09:03:42;19.10;24.90
35043;DHT22;21230;51.170;17.024;2023-06-04T09:06:08;19.10;25.10
35043;DHT22;21230;51.170;17.024;2023-06-04T09:08:35;19.10;22.00
35043;DHT22;21230;51.170;17.024;2023-06-04T09:11:04;18.80;20.90
35043;DHT22;21230;51.170;17.024;2023-06-04T09:13:31;18.90;22.70
35043;DHT22;21230;51.170;17.024;2023-06-04T09:16:00;19.00;23.30
35043;DHT22;21230;51.170;17.024;2023-06-04T09:18:26;19.20;25.20
35043;DHT22;21230;51.170;17.024;2023-06-04T09:21:05;19.30;22.20
35043;DHT22;21230;51.170;17.024;2023-06-04T09:23:31;19.30;21.30
35043;DHT22;21230;51.170;17.024;2023-06-04T09:26:06;19.40;21.20
35043;DHT22;21230;51.170;17.024;2023-06-04T09:28:33;19.50;22.40
35043;DHT22;21230;51.170;17.024;2023-06-04T09:30:58;19.50;22.00
35043;DHT22;21230;51.170;17.024;2023-06-04T09:33:24;19.60;21.90
35043;DHT22;21230;51.170;17.024;2023-06-04T09:35:59;19.70;20.80
35043;DHT22;21230;51.170;17.024;2023-06-04T09:38:34;19.80;21.30
35043;DHT22;21230;51.170;17.024;2023-06-04T09:41:01;19.70;21.30
35043;DHT22;21230;51.170;17.024;2023-06-04T09:43:30;19.70;21.00
35043;DHT22;21230;51.170;17.024;2023-06-04T09:46:15;19.60;20.50
35043;DHT22;21230;51.170;17.024;2023-06-04T09:48:42;19.50;21.70
35043;DHT22;21230;51.170;17.024;2023-06-04T09:51:14;19.40;21.40
35043;DHT22;21230;51.170;17.024;2023-06-04T09:53:40;19.40;20.20
35043;DHT22;21230;51.170;17.024;2023-06-04T09:56:07;19.50;20.50
35043;DHT22;21230;51.170;17.024;2023-06-04T09:58:34;19.60;20.60
35043;DHT22;21230;51.170;17.024;2023-06-04T10:01:02;19.80;21.40
35043;DHT22;21230;51.170;17.024;2023-06-04T10:03:32;20.10;20.80
35043;DHT22;21230;51.170;17.024;2023-06-04T10:05:59;20.20;20.00
35043;DHT22;21230;51.170;17.024;2023-06-04T10:08:26;20.40;20.00
35043;DHT22;21230;51.170;17.024;2023-06-04T10:10:56;20.50;19.40
35043;DHT22;21230;51.170;17.024;2023-06-04T10:13:23;20.60;19.00
35043;DHT22;21230;51.170;17.024;2023-06-04T10:15:50;20.50;17.50
35043;DHT22;21230;51.170;17.024;2023-06-04T10:18:16;20.60;18.40
35043;DHT22;21230;51.170;17.024;2023-06-04T10:20:42;20.60;18.00
35043;DHT22;21230;51.170;17.024;2023-06-04T10:23:07;20.60;15.70
35043;DHT22;21230;51.170;17.024;2023-06-04T10:25:36;20.20;15.10
35043;DHT22;21230;51.170;17.024;2023-06-04T10:28:03;20.10;17.00
35043;DHT22;21230;51.170;17.024;2023-06-04T10:30:29;20.20;19.00
35043;DHT22;21230;51.170;17.024;2023-06-04T10:32:56;20.20;18.30
35043;DHT22;21230;51.170;17.024;2023-06-04T10:35:32;20.30;18.00
35043;DHT22;21230;51.170;17.024;2023-06-04T10:38:07;20.40;19.40
35043;DHT22;21230;51.170;17.024;2023-06-04T10:40:34;20.50;17.50
35043;DHT22;21230;51.170;17.024;2023-06-04T10:43:11;20.40;17.00
35043;DHT22;21230;51.170;17.024;2023-06-04T10:45:37;20.50;16.00
35043;DHT22;21230;51.170;17.024;2023-06-04T10:48:04;20.50;17.40
35043;DHT22;21230;51.170;17.024;2023-06-04T10:50:34;20.50;17.50
35043;DHT22;21230;51.170;17.024;2023-06-04T10:53:01;20.60;18.80
35043;DHT22;21230;51.170;17.024;2023-06-04T10:55:31;20.80;16.30
35043;DHT22;21230;51.170;17.024;2023-06-04T10:57:58;20.50;14.20
35043;DHT22;21230;51.170;17.024;2023-06-04T11:00:34;20.50;14.90
35043;DHT22;21230;51.170;17.024;2023-06-04T11:03:12;20.50;15.20
35043;DHT22;21230;51.170;17.024;2023-06-04T11:05:41;20.40;16.50
35043;DHT22;21230;51.170;17.024;2023-06-04T11:08:08;20.60;17.40
35043;DHT22;21230;51.170;17.024;2023-06-04T11:10:36;20.70;15.40
35043;DHT22;21230;51.170;17.024;2023-06-04T11:13:02;20.80;16.60
35043;DHT22;21230;51.170;17.024;2023-06-04T11:15:42;20.80;15.70
35043;DHT22;21230;51.170;17.024;2023-06-04T11:18:08;20.90;15.90
35043;DHT22;21230;51.170;17.024;2023-06-04T11:20:34;21.00;16.00
35043;DHT22;21230;51.170;17.024;2023-06-04T11:23:00;21.10;15.20
35043;DHT22;21230;51.170;17.024;2023-06-04T11:25:28;21.10;16.50
35043;DHT22;21230;51.170;17.024;2023-06-04T11:27:55;20.90;14.80
35043;DHT22;21230;51.170;17.024;2023-06-04T11:30:22;20.80;16.90
35043;DHT22;21230;51.170;17.024;2023-06-04T11:32:48;20.70;14.90
35043;DHT22;21230;51.170;17.024;2023-06-04T11:35:14;20.50;14.90
35043;DHT22;21230;51.170;17.024;2023-06-04T11:37:40;20.50;15.80
35043;DHT22;21230;51.170;17.024;2023-06-04T11:40:18;20.70;16.20
35043;DHT22;21230;51.170;17.024;2023-06-04T11:42:45;20.80;15.30
35043;DHT22;21230;51.170;17.024;2023-06-04T11:45:15;21.10;17.70
35043;DHT22;21230;51.170;17.024;2023-06-04T11:47:47;21.10;15.40
35043;DHT22;21230;51.170;17.024;2023-06-04T11:50:14;21.20;15.60
35043;DHT22;21230;51.170;17.024;2023-06-04T11:52:40;21.00;14.60
35043;DHT22;21230;51.170;17.024;2023-06-04T11:55:12;21.10;16.80
35043;DHT22;21230;51.170;17.024;2023-06-04T11:57:38;21.20;15.40
35043;DHT22;21230;51.170;17.024;2023-06-04T12:00:04;21.40;17.50
35043;DHT22;21230;51.170;17.024;2023-06-04T12:02:48;21.50;15.10
35043;DHT22;21230;51.170;17.024;2023-06-04T12:05:14;21.30;15.90
35043;DHT22;21230;51.170;17.024;2023-06-04T12:07:40;21.20;15.60
35043;DHT22;21230;51.170;17.024;2023-06-04T12:10:07;21.40;15.50
35043;DHT22;21230;51.170;17.024;2023-06-04T12:12:34;21.00;14.80
35043;DHT22;21230;51.170;17.024;2023-06-04T12:15:00;21.00;13.90
35043;DHT22;21230;51.170;17.024;2023-06-04T12:17:26;21.10;13.80
35043;DHT22;21230;51.170;17.024;2023-06-04T12:19:51;21.10;13.60
35043;DHT22;21230;51.170;17.024;2023-06-04T12:22:17;21.10;14.50
35043;DHT22;21230;51.170;17.024;2023-06-04T12:24:47;21.30;14.70
35043;DHT22;21230;51.170;17.024;2023-06-04T12:27:13;21.50;14.00
35043;DHT22;21230;51.170;17.024;2023-06-04T12:29:38;21.60;13.20
35043;DHT22;21230;51.170;17.024;2023-06-04T12:32:08;21.60;14.40
35043;DHT22;21230;51.170;17.024;2023-06-04T12:34:37;21.70;14.10
35043;DHT22;21230;51.170;17.024;2023-06-04T12:37:03;21.60;11.70
35043;DHT22;21230;51.170;17.024;2023-06-04T12:39:31;21.60;13.20
35043;DHT22;21230;51.170;17.024;2023-06-04T12:41:57;21.70;12.20
35043;DHT22;21230;51.170;17.024;2023-06-04T12:44:23;21.80;13.60
35043;DHT22;21230;51.170;17.024;2023-06-04T12:46:49;21.90;13.30
35043;DHT22;21230;51.170;17.024;2023-06-04T12:49:15;21.80;12.00
35043;DHT22;21230;51.170;17.024;2023-06-04T12:51:41;21.80;11.80
35043;DHT22;21230;51.170;17.024;2023-06-04T12:54:06;21.80;11.50
35043;DHT22;21230;51.170;17.024;2023-06-04T12:56:32;22.00;13.30
35043;DHT22;21230;51.170;17.024;2023-06-04T12:58:58;22.20;12.30
35043;DHT22;21230;51.170;17.024;2023-06-04T13:01:24;22.20;12.40
35043;DHT22;21230;51.170;17.024;2023-06-04T13:03:49;22.20;11.20
35043;DHT22;21230;51.170;17.024;2023-06-04T13:06:15;22.20;11.00
35043;DHT22;21230;51.170;17.024;2023-06-04T13:08:41;22.30;11.80
35043;DHT22;21230;51.170;17.024;2023-06-04T13:11:06;22.40;10.40
35043;DHT22;21230;51.170;17.024;2023-06-04T13:13:33;22.30;10.20
35043;DHT22;21230;51.170;17.024;2023-06-04T13:15:59;22.30;9.90
35043;DHT22;21230;51.170;17.024;2023-06-04T13:18:24;22.10;10.10
35043;DHT22;21230;51.170;17.024;2023-06-04T13:20:50;22.00;9.60
35043;DHT22;21230;51.170;17.024;2023-06-04T13:23:16;21.60;10.40
35043;DHT22;21230;51.170;17.024;2023-06-04T13:25:42;21.50;10.80
35043;DHT22;21230;51.170;17.024;2023-06-04T13:28:07;21.60;12.00
35043;DHT22;21230;51.170;17.024;2023-06-04T13:30:36;21.60;10.20
35043;DHT22;21230;51.170;17.024;2023-06-04T13:33:03;21.80;11.20
35043;DHT22;21230;51.170;17.024;2023-06-04T13:35:28;21.80;10.30
35043;DHT22;21230;51.170;17.024;2023-06-04T13:37:54;21.70;10.20
35043;DHT22;21230;51.170;17.024;2023-06-04T13:40:20;21.60;10.40
35043;DHT22;21230;51.170;17.024;2023-06-04T13:42:45;21.60;12.10
35043;DHT22;21230;51.170;17.024;2023-06-04T13:45:11;21.70;11.20
35043;DHT22;21230;51.170;17.024;2023-06-04T13:47:37;21.70;11.10
35043;DHT22;21230;51.170;17.024;2023-06-04T13:50:02;21.80;10.70
35043;DHT22;21230;51.170;17.024;2023-06-04T13:52:29;21.70;11.30
35043;DHT22;21230;51.170;17.024;2023-06-04T13:54:54;21.70;10.60
35043;DHT22;21230;51.170;17.024;2023-06-04T13:57:20;21.80;10.20
35043;DHT22;21230;51.170;17.024;2023-06-04T13:59:46;21.80;8.70
35043;DHT22;21230;51.170;17.024;2023-06-04T14:02:12;21.80;9.70
35043;DHT22;21230;51.170;17.024;2023-06-04T14:04:37;21.70;10.00
35043;DHT22;21230;51.170;17.024;2023-06-04T14:07:03;21.60;9.60
35043;DHT22;21230;51.170;17.024;2023-06-04T14:09:30;21.60;9.50
35043;DHT22;21230;51.170;17.024;2023-06-04T14:11:56;21.50;10.60
35043;DHT22;21230;51.170;17.024;2023-06-04T14:14:22;21.70;13.00
35043;DHT22;21230;51.170;17.024;2023-06-04T14:16:47;21.90;12.30
35043;DHT22;21230;51.170;17.024;2023-06-04T14:19:14;22.00;10.30
35043;DHT22;21230;51.170;17.024;2023-06-04T14:21:40;22.10;10.50
35043;DHT22;21230;51.170;17.024;2023-06-04T14:24:06;22.20;10.70
35043;DHT22;21230;51.170;17.024;2023-06-04T14:26:32;22.00;10.90
35043;DHT22;21230;51.170;17.024;2023-06-04T14:28:59;22.00;11.00
35043;DHT22;21230;51.170;17.024;2023-06-04T14:31:24;22.10;10.20
35043;DHT22;21230;51.170;17.024;2023-06-04T14:33:50;22.20;10.50
35043;DHT22;21230;51.170;17.024;2023-06-04T14:36:16;22.30;11.30
35043;DHT22;21230;51.170;17.024;2023-06-04T14:38:41;22.40;10.70
35043;DHT22;21230;51.170;17.024;2023-06-04T14:41:07;22.60;10.10
35043;DHT22;21230;51.170;17.024;2023-06-04T14:43:33;22.50;7.30
35043;DHT22;21230;51.170;17.024;2023-06-04T14:45:58;22.50;7.60
35043;DHT22;21230;51.170;17.024;2023-06-04T14:48:24;22.60;8.00
35043;DHT22;21230;51.170;17.024;2023-06-04T14:50:50;22.60;8.00
35043;DHT22;21230;51.170;17.024;2023-06-04T14:53:18;22.60;6.10
35043;DHT22;21230;51.170;17.024;2023-06-04T14:55:44;22.70;6.60
35043;DHT22;21230;51.170;17.024;2023-06-04T14:58:11;22.50;6.30
35043;DHT22;21230;51.170;17.024;2023-06-04T15:00:37;22.50;5.20
35043;DHT22;21230;51.170;17.024;2023-06-04T15:03:02;22.40;5.20
35043;DHT22;21230;51.170;17.024;2023-06-04T15:05:28;22.40;7.50
35043;DHT22;21230;51.170;17.024;2023-06-04T15:07:54;22.50;7.00
35043;DHT22;21230;51.170;17.024;2023-06-04T15:10:20;22.60;6.50
35043;DHT22;21230;51.170;17.024;2023-06-04T15:12:45;22.70;7.20
35043;DHT22;21230;51.170;17.024;2023-06-04T15:15:11;22.70;7.70
35043;DHT22;21230;51.170;17.024;2023-06-04T15:17:37;22.70;6.80
35043;DHT22;21230;51.170;17.024;2023-06-04T15:20:05;22.70;7.50